Time;durP1;ratioP1;P1;durP2;ratioP2;P2;SDS_P1;SDS_P2;PMS_P1;PMS_P2;Temp;Humidity;BMP_temperature;BMP_pressure;BME280_temperature;BME280_humidity;BME280_pressure;Samples;Min_cycle;Max_cycle;Signal;HPM_P1;HPM_P2
2022/07/30 00:01:40;;;;;;;6.45;4.63;;;;;;;;;;4933956;29;20496;-77
2022/07/30 00:04:06;;;;;;;9.25;4.60;;;;;;;;;;4936515;29;20042;-76
2022/07/30 00:06:31;;;;;;;7.70;4.75;;;;;;;;;;4937778;29;20028;-77
2022/07/30 00:08:57;;;;;;;7.70;4.38;;;;;;;;;;4946792;29;20106;-77
2022/07/30 00:11:23;;;;;;;9.32;4.50;;;;;;;;;;4943469;29;20034;-76
2022/07/30 00:13:49;;;;;;;7.30;4.90;;;;;;;;;;4941355;29;20062;-76
2022/07/30 00:16:14;;;;;;;11.65;6.35;;;;;;;;;;4937673;29;20047;-76
2022/07/30 00:18:40;;;;;;;9.63;5.82;;;;;;;;;;4941432;29;20058;-77
2022/07/30 00:21:05;;;;;;;9.68;5.68;;;;;;;;;;4935138;29;20035;-75
2022/07/30 00:23:31;;;;;;;9.82;5.70;;;;;;;;;;4940407;29;20031;-75
2022/07/30 00:25:57;;;;;;;14.25;6.63;;;;;;;;;;4967273;28;20459;-76
2022/07/30 00:28:22;;;;;;;8.50;5.60;;;;;;;;;;4952322;28;20042;-76
2022/07/30 00:30:48;;;;;;;8.32;5.90;;;;;;;;;;4967055;28;20037;-76
2022/07/30 00:33:13;;;;;;;8.07;6.10;;;;;;;;;;4952356;29;20031;-76
2022/07/30 00:35:39;;;;;;;6.50;5.15;;;;;;;;;;4950923;29;20224;-76
2022/07/30 00:38:04;;;;;;;7.63;5.57;;;;;;;;;;4950425;28;20027;-76
2022/07/30 00:40:30;;;;;;;7.32;5.55;;;;;;;;;;4951199;29;20117;-76
2022/07/30 00:42:55;;;;;;;8.18;5.95;;;;;;;;;;4952668;29;20459;-76
2022/07/30 00:45:21;;;;;;;7.90;5.75;;;;;;;;;;4967153;28;20376;-76
2022/07/30 00:47:46;;;;;;;11.15;5.63;;;;;;;;;;4951154;29;20412;-76
2022/07/30 00:50:14;;;;;;;7.63;6.15;;;;;;;;;;4953217;29;20035;-77
2022/07/30 00:52:40;;;;;;;7.88;5.97;;;;;;;;;;4952909;29;20084;-76
2022/07/30 00:55:08;;;;;;;10.20;6.32;;;;;;;;;;4950994;29;20472;-76
2022/07/30 00:57:34;;;;;;;10.30;5.80;;;;;;;;;;4952163;28;20053;-77
2022/07/30 00:59:59;;;;;;;7.85;6.25;;;;;;;;;;4950936;28;20093;-76
2022/07/30 01:02:25;;;;;;;7.43;5.82;;;;;;;;;;4950524;29;20498;-76
2022/07/30 01:04:50;;;;;;;7.25;5.90;;;;;;;;;;4950670;29;20480;-75
2022/07/30 01:07:16;;;;;;;7.07;5.82;;;;;;;;;;4951988;29;20504;-77
2022/07/30 01:09:42;;;;;;;8.23;5.80;;;;;;;;;;4952439;28;20047;-76
2022/07/30 01:12:08;;;;;;;9.10;6.78;;;;;;;;;;4970868;28;20027;-77
2022/07/30 01:14:36;;;;;;;10.27;6.85;;;;;;;;;;4955437;28;20106;-77
2022/07/30 01:17:03;;;;;;;8.52;5.63;;;;;;;;;;4954203;28;20532;-76
2022/07/30 01:19:54;;;;;;;6.40;5.22;;;;;;;;;;4953364;29;20691;-75
2022/07/30 01:22:32;;;;;;;9.70;6.22;;;;;;;;;;4968088;28;20027;-76
2022/07/30 01:25:04;;;;;;;9.43;5.85;;;;;;;;;;4931959;29;20055;-76
2022/07/30 01:27:33;;;;;;;11.38;5.53;;;;;;;;;;4931633;29;20781;-76
2022/07/30 01:30:03;;;;;;;8.40;5.80;;;;;;;;;;4932853;29;20042;-76
2022/07/30 01:32:30;;;;;;;10.65;5.20;;;;;;;;;;4931040;29;20031;-76
2022/07/30 01:34:58;;;;;;;8.82;5.05;;;;;;;;;;4931284;29;20035;-76
2022/07/30 01:37:25;;;;;;;6.20;5.03;;;;;;;;;;4930895;29;20404;-76
2022/07/30 01:39:52;;;;;;;7.38;5.03;;;;;;;;;;4931473;29;20122;-76
2022/07/30 01:42:19;;;;;;;6.55;5.32;;;;;;;;;;4930796;29;20047;-76
2022/07/30 01:44:47;;;;;;;9.38;7.05;;;;;;;;;;4931089;29;20063;-76
2022/07/30 01:47:15;;;;;;;9.70;6.22;;;;;;;;;;4932126;29;20039;-76
2022/07/30 01:49:42;;;;;;;9.77;6.80;;;;;;;;;;4932217;28;20035;-76
2022/07/30 01:52:08;;;;;;;10.88;6.82;;;;;;;;;;4936189;29;20031;-76
2022/07/30 01:54:36;;;;;;;9.98;7.32;;;;;;;;;;4934668;29;20029;-76
2022/07/30 01:57:03;;;;;;;9.50;6.20;;;;;;;;;;4935133;29;20082;-76
2022/07/30 01:59:32;;;;;;;11.38;6.35;;;;;;;;;;4936131;29;20023;-75
2022/07/30 02:01:58;;;;;;;8.38;6.25;;;;;;;;;;4934338;29;20028;-75
2022/07/30 02:04:23;;;;;;;8.85;6.97;;;;;;;;;;4934275;29;20528;-75
2022/07/30 02:06:58;;;;;;;9.68;6.72;;;;;;;;;;4935792;29;20236;-75
2022/07/30 02:09:29;;;;;;;8.20;6.40;;;;;;;;;;4935281;29;20515;-75
2022/07/30 02:14:46;;;;;;;9.63;6.97;;;;;;;;;;4935908;29;20042;-76
2022/07/30 02:17:18;;;;;;;10.35;6.90;;;;;;;;;;4934798;29;20110;-76
2022/07/30 02:19:44;;;;;;;11.25;6.78;;;;;;;;;;4934226;29;20035;-75
2022/07/30 02:22:12;;;;;;;12.35;6.90;;;;;;;;;;4935496;29;20036;-76
2022/07/30 02:24:41;;;;;;;15.55;7.43;;;;;;;;;;4950451;29;20034;-76
2022/07/30 02:27:15;;;;;;;12.40;7.55;;;;;;;;;;4953200;29;20031;-76
2022/07/30 02:29:42;;;;;;;11.18;7.97;;;;;;;;;;4952918;29;20054;-76
2022/07/30 02:32:11;;;;;;;13.40;7.32;;;;;;;;;;4953040;29;20027;-76
2022/07/30 02:34:39;;;;;;;10.50;7.65;;;;;;;;;;4953173;29;20472;-76
2022/07/30 02:37:07;;;;;;;12.27;7.15;;;;;;;;;;4954990;28;20058;-77
2022/07/30 02:39:34;;;;;;;12.13;6.90;;;;;;;;;;4936849;29;20105;-76
2022/07/30 02:42:01;;;;;;;10.95;7.40;;;;;;;;;;4952911;29;20042;-76
2022/07/30 02:44:28;;;;;;;10.38;7.70;;;;;;;;;;4952780;29;20551;-76
2022/07/30 02:46:56;;;;;;;9.68;6.75;;;;;;;;;;4952745;29;20027;-77
2022/07/30 02:49:22;;;;;;;13.90;7.38;;;;;;;;;;4952858;29;20469;-76
2022/07/30 02:51:49;;;;;;;14.75;10.65;;;;;;;;;;4952960;29;20098;-76
2022/07/30 02:54:17;;;;;;;10.35;7.70;;;;;;;;;;4953081;29;20023;-75
2022/07/30 02:56:46;;;;;;;9.73;7.32;;;;;;;;;;4953695;29;20027;-77
2022/07/30 02:59:13;;;;;;;10.40;8.13;;;;;;;;;;4952593;29;20487;-77
2022/07/30 03:01:40;;;;;;;11.27;7.43;;;;;;;;;;4953785;28;20027;-77
2022/07/30 03:04:07;;;;;;;11.70;8.25;;;;;;;;;;4952583;29;20279;-76
2022/07/30 03:06:34;;;;;;;10.93;8.13;;;;;;;;;;4952618;29;20510;-75
2022/07/30 03:09:01;;;;;;;10.40;8.10;;;;;;;;;;4952703;29;20071;-75
2022/07/30 03:11:28;;;;;;;12.38;8.32;;;;;;;;;;4952358;29;20029;-76
2022/07/30 03:13:53;;;;;;;14.43;8.25;;;;;;;;;;4953583;29;20042;-76
2022/07/30 03:16:21;;;;;;;13.68;7.63;;;;;;;;;;4952364;29;20027;-76
2022/07/30 03:18:48;;;;;;;14.90;9.23;;;;;;;;;;4953490;28;20031;-76
2022/07/30 03:21:15;;;;;;;12.65;8.85;;;;;;;;;;4951967;29;20031;-76
2022/07/30 03:23:44;;;;;;;15.32;10.52;;;;;;;;;;4953235;29;20034;-76
2022/07/30 03:26:11;;;;;;;16.95;10.25;;;;;;;;;;4953464;28;20030;-76
2022/07/30 03:28:38;;;;;;;15.48;10.68;;;;;;;;;;4953746;28;20027;-77
2022/07/30 03:31:06;;;;;;;11.82;9.18;;;;;;;;;;4952984;29;20110;-77
2022/07/30 03:33:33;;;;;;;12.65;9.93;;;;;;;;;;4954444;28;20033;-78
2022/07/30 03:35:59;;;;;;;13.90;10.10;;;;;;;;;;4954070;29;20096;-75
2022/07/30 03:38:25;;;;;;;16.48;11.88;;;;;;;;;;4952501;29;20161;-76
2022/07/30 03:40:51;;;;;;;14.55;10.15;;;;;;;;;;4951876;29;20074;-76
2022/07/30 03:43:18;;;;;;;13.52;11.15;;;;;;;;;;4952897;29;20391;-76
2022/07/30 03:45:45;;;;;;;14.85;12.10;;;;;;;;;;4953160;29;20063;-76
2022/07/30 03:48:12;;;;;;;26.83;13.40;;;;;;;;;;4953559;28;20019;-76
2022/07/30 03:50:41;;;;;;;17.48;13.15;;;;;;;;;;4953037;29;20039;-76
2022/07/30 03:53:09;;;;;;;16.40;13.05;;;;;;;;;;4951690;29;20027;-77
2022/07/30 03:55:35;;;;;;;19.05;12.27;;;;;;;;;;4953061;28;20077;-76
2022/07/30 03:58:02;;;;;;;14.07;11.60;;;;;;;;;;4952987;28;20102;-76
2022/07/30 04:00:28;;;;;;;17.38;12.13;;;;;;;;;;4952722;28;20030;-77
2022/07/30 04:02:54;;;;;;;16.38;12.18;;;;;;;;;;4951503;29;20023;-76
2022/07/30 04:05:20;;;;;;;19.25;12.50;;;;;;;;;;4952853;28;20491;-76
2022/07/30 04:07:46;;;;;;;15.20;11.02;;;;;;;;;;4952685;29;20108;-77
2022/07/30 04:10:12;;;;;;;14.23;10.45;;;;;;;;;;4952705;28;20098;-76
2022/07/30 04:12:38;;;;;;;17.38;11.10;;;;;;;;;;4951791;28;20030;-76
2022/07/30 04:15:04;;;;;;;15.00;11.15;;;;;;;;;;4951464;29;20398;-76
2022/07/30 04:17:41;;;;;;;15.80;10.57;;;;;;;;;;4951294;29;20038;-77
2022/07/30 04:20:16;;;;;;;15.55;11.77;;;;;;;;;;4951074;29;20067;-76
2022/07/30 04:22:42;;;;;;;16.33;10.35;;;;;;;;;;4949767;29;20118;-76
2022/07/30 04:25:08;;;;;;;17.23;11.93;;;;;;;;;;4931903;29;20571;-76
2022/07/30 04:27:35;;;;;;;16.67;11.10;;;;;;;;;;4931981;29;20036;-77
2022/07/30 04:30:01;;;;;;;13.73;10.75;;;;;;;;;;4931808;29;20027;-76
2022/07/30 04:32:27;;;;;;;17.80;12.25;;;;;;;;;;4933072;29;20128;-76
2022/07/30 04:34:54;;;;;;;17.02;13.45;;;;;;;;;;4931884;29;20044;-76
2022/07/30 04:37:22;;;;;;;18.13;14.88;;;;;;;;;;4932021;29;20500;-75
2022/07/30 04:39:50;;;;;;;20.58;15.25;;;;;;;;;;4931741;29;20114;-76
2022/07/30 04:42:16;;;;;;;20.08;14.82;;;;;;;;;;4931545;29;20039;-76
2022/07/30 04:44:41;;;;;;;19.38;15.80;;;;;;;;;;4932687;29;20033;-76
2022/07/30 04:47:07;;;;;;;21.70;15.23;;;;;;;;;;4931550;29;20024;-76
2022/07/30 04:49:33;;;;;;;21.13;16.20;;;;;;;;;;4932680;29;20042;-76
2022/07/30 04:52:00;;;;;;;19.92;16.15;;;;;;;;;;4932699;29;20097;-76
2022/07/30 04:54:31;;;;;;;22.15;16.05;;;;;;;;;;4931040;29;20023;-77
2022/07/30 04:56:57;;;;;;;24.08;16.83;;;;;;;;;;4932897;29;20481;-76
2022/07/30 04:59:24;;;;;;;22.65;15.40;;;;;;;;;;4931554;29;20050;-77
2022/07/30 05:01:51;;;;;;;25.42;16.08;;;;;;;;;;4934218;29;20118;-77
2022/07/30 05:04:18;;;;;;;22.23;16.30;;;;;;;;;;4931745;29;20123;-77
2022/07/30 05:06:44;;;;;;;24.50;16.92;;;;;;;;;;4931176;29;20035;-76
2022/07/30 05:09:10;;;;;;;20.88;16.27;;;;;;;;;;4931148;29;20062;-75
2022/07/30 05:11:36;;;;;;;21.80;16.65;;;;;;;;;;4930774;29;20040;-75
2022/07/30 05:14:01;;;;;;;25.48;18.23;;;;;;;;;;4931419;29;20036;-76
2022/07/30 05:16:28;;;;;;;23.20;18.08;;;;;;;;;;4930946;29;20039;-75
2022/07/30 05:18:54;;;;;;;26.67;18.65;;;;;;;;;;4931075;29;20448;-76
2022/07/30 05:21:19;;;;;;;26.55;18.33;;;;;;;;;;4931688;29;20083;-76
2022/07/30 05:23:45;;;;;;;27.38;17.73;;;;;;;;;;4941975;28;20027;-75
2022/07/30 05:26:11;;;;;;;24.65;18.10;;;;;;;;;;4954167;29;20031;-76
2022/07/30 05:28:36;;;;;;;25.30;19.23;;;;;;;;;;4954060;29;20090;-75
2022/07/30 05:31:02;;;;;;;31.02;20.73;;;;;;;;;;4970238;28;20372;-75
2022/07/30 05:33:27;;;;;;;31.05;17.80;;;;;;;;;;4954096;29;20119;-74
2022/07/30 05:35:53;;;;;;;23.15;18.15;;;;;;;;;;4955486;29;20046;-75
2022/07/30 05:38:18;;;;;;;24.02;18.30;;;;;;;;;;4955505;28;20070;-76
2022/07/30 05:40:45;;;;;;;25.42;19.48;;;;;;;;;;4955288;29;20039;-75
2022/07/30 05:43:11;;;;;;;26.63;19.02;;;;;;;;;;4953947;29;20464;-76
2022/07/30 05:45:37;;;;;;;30.08;19.25;;;;;;;;;;4953954;29;20484;-76
2022/07/30 05:48:03;;;;;;;22.52;16.50;;;;;;;;;;4953973;29;20031;-76
2022/07/30 05:50:29;;;;;;;19.88;14.35;;;;;;;;;;4953709;29;20027;-75
2022/07/30 05:52:57;;;;;;;25.02;17.33;;;;;;;;;;4953989;29;20030;-76
2022/07/30 05:55:22;;;;;;;26.38;16.42;;;;;;;;;;4970266;28;20031;-75
2022/07/30 05:57:48;;;;;;;21.88;16.10;;;;;;;;;;4953717;29;20023;-75
2022/07/30 06:00:14;;;;;;;18.38;13.88;;;;;;;;;;4954017;29;20043;-75
2022/07/30 06:02:40;;;;;;;16.65;14.02;;;;;;;;;;4954981;28;20089;-76
2022/07/30 06:05:06;;;;;;;20.45;14.07;;;;;;;;;;4955191;28;20031;-76
2022/07/30 06:07:32;;;;;;;23.33;14.25;;;;;;;;;;4955883;29;20074;-78
2022/07/30 06:09:59;;;;;;;21.90;14.85;;;;;;;;;;4975688;28;20058;-75
2022/07/30 06:12:28;;;;;;;20.38;15.32;;;;;;;;;;4959218;29;20046;-75
2022/07/30 06:14:53;;;;;;;25.10;19.20;;;;;;;;;;4974443;28;20391;-75
2022/07/30 06:17:19;;;;;;;23.92;15.35;;;;;;;;;;4956099;29;20031;-75
2022/07/30 06:19:44;;;;;;;23.60;15.32;;;;;;;;;;4954944;29;20031;-75
2022/07/30 06:22:10;;;;;;;21.35;15.32;;;;;;;;;;4953851;29;20035;-75
2022/07/30 06:24:36;;;;;;;23.67;16.15;;;;;;;;;;4954790;28;20462;-76
2022/07/30 06:27:02;;;;;;;18.98;14.55;;;;;;;;;;4953390;29;20031;-76
2022/07/30 06:29:27;;;;;;;19.48;15.35;;;;;;;;;;4954704;28;20047;-77
2022/07/30 06:31:53;;;;;;;20.92;15.13;;;;;;;;;;4953696;29;20084;-74
2022/07/30 06:34:19;;;;;;;19.27;16.10;;;;;;;;;;4953570;29;20031;-75
2022/07/30 06:36:44;;;;;;;21.52;15.77;;;;;;;;;;4953906;28;20336;-75
2022/07/30 06:39:10;;;;;;;22.58;15.88;;;;;;;;;;4953356;29;20023;-75
2022/07/30 06:41:35;;;;;;;23.90;14.98;;;;;;;;;;4952809;29;20528;-76
2022/07/30 06:44:01;;;;;;;25.25;16.13;;;;;;;;;;4955177;29;20514;-76
2022/07/30 06:46:26;;;;;;;22.98;15.52;;;;;;;;;;4952944;29;20039;-76
2022/07/30 06:48:52;;;;;;;21.98;15.82;;;;;;;;;;4954103;29;20027;-76
2022/07/30 06:51:17;;;;;;;18.70;14.07;;;;;;;;;;4952860;29;20086;-76
2022/07/30 06:53:44;;;;;;;18.83;13.43;;;;;;;;;;4954172;29;20472;-76
2022/07/30 06:56:11;;;;;;;16.80;12.68;;;;;;;;;;4952729;29;20118;-76
2022/07/30 06:58:37;;;;;;;19.85;13.55;;;;;;;;;;4954048;29;20051;-76
2022/07/30 07:01:02;;;;;;;17.65;13.30;;;;;;;;;;4952802;29;20039;-76
2022/07/30 07:03:28;;;;;;;15.93;13.35;;;;;;;;;;4954140;29;20062;-76
2022/07/30 07:05:53;;;;;;;17.88;12.43;;;;;;;;;;4953710;29;20047;-77
2022/07/30 07:08:19;;;;;;;15.43;10.85;;;;;;;;;;4953510;29;20097;-77
2022/07/30 07:10:45;;;;;;;11.90;10.18;;;;;;;;;;4952353;29;20024;-77
2022/07/30 07:13:10;;;;;;;15.75;10.63;;;;;;;;;;4954092;28;20027;-77
2022/07/30 07:15:36;;;;;;;13.93;9.57;;;;;;;;;;4952288;29;20615;-77
2022/07/30 07:18:01;;;;;;;15.25;10.95;;;;;;;;;;4954188;28;20042;-77
2022/07/30 07:20:27;;;;;;;12.38;10.05;;;;;;;;;;4954036;29;20035;-77
2022/07/30 07:22:52;;;;;;;14.85;10.60;;;;;;;;;;4949753;29;20031;-76
2022/07/30 07:25:18;;;;;;;12.50;10.27;;;;;;;;;;4934726;29;20481;-77
2022/07/30 07:27:43;;;;;;;15.93;10.80;;;;;;;;;;4933002;29;20027;-76
2022/07/30 07:30:09;;;;;;;12.77;10.23;;;;;;;;;;4933213;29;20480;-76
2022/07/30 07:32:35;;;;;;;15.20;10.98;;;;;;;;;;4932795;29;20117;-78
2022/07/30 07:35:01;;;;;;;11.73;9.90;;;;;;;;;;4932703;29;20024;-76
2022/07/30 07:37:27;;;;;;;10.65;8.88;;;;;;;;;;4934142;29;20036;-77
2022/07/30 07:39:52;;;;;;;11.43;8.70;;;;;;;;;;4934238;29;20578;-77
2022/07/30 07:42:18;;;;;;;13.18;9.43;;;;;;;;;;4932549;29;20497;-77
2022/07/30 07:44:43;;;;;;;10.90;8.68;;;;;;;;;;4932503;29;20040;-77
2022/07/30 07:47:09;;;;;;;10.90;8.55;;;;;;;;;;4933297;29;20131;-78
2022/07/30 07:49:34;;;;;;;13.77;8.60;;;;;;;;;;4934204;29;20032;-76
2022/07/30 07:52:00;;;;;;;10.93;7.95;;;;;;;;;;4933048;29;20388;-76
2022/07/30 07:54:25;;;;;;;9.23;7.63;;;;;;;;;;4932909;29;20023;-77
2022/07/30 07:56:51;;;;;;;9.90;8.27;;;;;;;;;;4934167;29;20027;-77
2022/07/30 07:59:17;;;;;;;10.85;7.88;;;;;;;;;;4933174;29;20035;-76
2022/07/30 08:01:42;;;;;;;9.25;6.82;;;;;;;;;;4932691;29;20032;-77
2022/07/30 08:04:08;;;;;;;8.32;7.40;;;;;;;;;;4933048;29;20130;-77
2022/07/30 08:06:35;;;;;;;9.82;6.90;;;;;;;;;;4932738;29;20035;-76
2022/07/30 08:09:00;;;;;;;12.98;7.70;;;;;;;;;;4932611;29;20060;-77
2022/07/30 08:11:26;;;;;;;10.88;7.53;;;;;;;;;;4932469;29;20487;-77
2022/07/30 08:13:53;;;;;;;11.30;7.90;;;;;;;;;;4932224;29;20031;-77
2022/07/30 08:16:19;;;;;;;9.93;7.43;;;;;;;;;;4932837;29;20058;-77
2022/07/30 08:18:45;;;;;;;7.95;7.15;;;;;;;;;;4932184;29;20035;-78
2022/07/30 08:21:12;;;;;;;10.77;8.13;;;;;;;;;;4932060;29;20365;-77
2022/07/30 08:23:37;;;;;;;11.50;7.95;;;;;;;;;;4940095;29;20485;-77
2022/07/30 08:26:03;;;;;;;11.05;7.60;;;;;;;;;;4967463;28;20115;-78
2022/07/30 08:28:28;;;;;;;18.42;8.02;;;;;;;;;;4951607;29;20106;-76
2022/07/30 08:30:54;;;;;;;9.98;8.30;;;;;;;;;;4951251;29;20480;-76
2022/07/30 08:33:20;;;;;;;11.65;7.63;;;;;;;;;;4951447;28;20516;-76
2022/07/30 08:35:45;;;;;;;10.93;8.30;;;;;;;;;;4967493;28;20027;-77
2022/07/30 08:38:12;;;;;;;13.52;8.45;;;;;;;;;;4951503;29;20135;-77
2022/07/30 08:40:37;;;;;;;9.07;7.72;;;;;;;;;;4951094;29;20118;-77
2022/07/30 08:43:05;;;;;;;9.27;8.10;;;;;;;;;;4952759;28;20091;-77
2022/07/30 08:45:31;;;;;;;16.40;10.77;;;;;;;;;;4951597;29;20055;-76
2022/07/30 08:47:59;;;;;;;17.02;9.55;;;;;;;;;;4951898;28;20061;-77
2022/07/30 08:50:25;;;;;;;9.93;8.25;;;;;;;;;;4951705;29;20559;-77
2022/07/30 08:52:54;;;;;;;10.45;8.82;;;;;;;;;;4951138;29;20027;-77
2022/07/30 08:55:21;;;;;;;10.77;8.48;;;;;;;;;;4951931;29;20409;-77
2022/07/30 08:57:48;;;;;;;11.40;8.65;;;;;;;;;;4967638;28;20484;-77
2022/07/30 09:00:14;;;;;;;15.70;10.15;;;;;;;;;;4950975;29;20073;-76
2022/07/30 09:02:39;;;;;;;11.25;8.88;;;;;;;;;;4950799;29;20496;-77
2022/07/30 09:05:06;;;;;;;13.55;9.70;;;;;;;;;;4952738;29;20031;-78
2022/07/30 09:07:33;;;;;;;11.43;9.55;;;;;;;;;;4951431;29;20027;-77
2022/07/30 09:09:59;;;;;;;22.52;17.45;;;;;;;;;;4950929;29;20610;-78
2022/07/30 09:12:39;;;;;;;12.70;10.20;;;;;;;;;;4968584;28;20039;-76
2022/07/30 09:15:14;;;;;;;10.25;9.18;;;;;;;;;;4953584;29;20380;-76
2022/07/30 09:18:03;;;;;;;14.00;8.68;;;;;;;;;;4953567;29;20030;-78
2022/07/30 09:20:33;;;;;;;10.13;8.10;;;;;;;;;;4974502;28;20130;-78
2022/07/30 09:23:03;;;;;;;10.20;8.40;;;;;;;;;;4957981;29;20035;-78
2022/07/30 09:25:44;;;;;;;10.82;7.97;;;;;;;;;;4942204;29;20058;-78
2022/07/30 09:28:10;;;;;;;10.85;8.73;;;;;;;;;;4940473;29;20119;-79
2022/07/30 09:30:42;;;;;;;9.98;8.60;;;;;;;;;;4939270;29;20466;-79
2022/07/30 09:33:08;;;;;;;12.35;8.57;;;;;;;;;;4934578;29;20024;-78
2022/07/30 09:35:41;;;;;;;12.52;8.93;;;;;;;;;;4933819;29;20437;-77
2022/07/30 09:38:08;;;;;;;11.85;8.02;;;;;;;;;;4916286;29;20035;-79
2022/07/30 09:40:34;;;;;;;9.40;8.18;;;;;;;;;;4934387;29;20063;-78
2022/07/30 09:43:09;;;;;;;9.45;7.97;;;;;;;;;;4933789;29;20481;-78
2022/07/30 09:45:35;;;;;;;10.52;7.68;;;;;;;;;;4935432;29;20119;-78
2022/07/30 09:48:01;;;;;;;14.05;8.77;;;;;;;;;;4934949;29;20519;-82
2022/07/30 09:50:28;;;;;;;14.27;8.38;;;;;;;;;;4933720;29;20023;-78
2022/07/30 09:52:54;;;;;;;10.52;8.38;;;;;;;;;;4933187;29;20074;-79
2022/07/30 09:55:32;;;;;;;21.95;14.05;;;;;;;;;;4933698;29;20032;-78
2022/07/30 09:58:03;;;;;;;9.77;8.73;;;;;;;;;;4933275;29;20031;-78
2022/07/30 10:00:29;;;;;;;;;;;;;;;;;;4933027;29;20459;-78
2022/07/30 10:02:55;;;;;;;14.88;8.20;;;;;;;;;;4932270;29;20012;-78
2022/07/30 10:05:21;;;;;;;12.48;8.63;;;;;;;;;;4933985;29;20099;-77
2022/07/30 10:07:48;;;;;;;14.85;8.85;;;;;;;;;;4932556;29;20032;-77
2022/07/30 10:10:15;;;;;;;15.48;9.48;;;;;;;;;;4932114;29;20079;-78
2022/07/30 10:12:41;;;;;;;11.50;9.60;;;;;;;;;;4936061;29;20074;-78
2022/07/30 10:15:08;;;;;;;10.63;9.40;;;;;;;;;;4936910;29;20032;-77
2022/07/30 10:17:37;;;;;;;13.13;9.70;;;;;;;;;;4937703;29;20035;-78
2022/07/30 10:20:06;;;;;;;11.18;8.48;;;;;;;;;;4935837;29;20031;-78
2022/07/30 10:22:33;;;;;;;11.35;8.45;;;;;;;;;;4935033;29;20024;-77
2022/07/30 10:24:59;;;;;;;11.65;8.85;;;;;;;;;;4958660;29;20384;-77
2022/07/30 10:27:25;;;;;;;13.73;9.18;;;;;;;;;;4970871;28;20031;-78
2022/07/30 10:29:51;;;;;;;12.38;8.73;;;;;;;;;;4954808;29;20554;-75
2022/07/30 10:32:16;;;;;;;11.65;8.35;;;;;;;;;;4955644;28;20515;-77
2022/07/30 10:34:42;;;;;;;10.50;7.93;;;;;;;;;;4954388;29;20075;-78
2022/07/30 10:37:11;;;;;;;9.82;8.13;;;;;;;;;;4955650;29;20494;-77
2022/07/30 10:39:42;;;;;;;10.23;7.40;;;;;;;;;;4953634;29;20031;-76
2022/07/30 10:42:26;;;;;;;;;;;;;;;;;;4970719;28;20027;-78
2022/07/30 10:45:12;;;;;;;9.38;7.53;;;;;;;;;;4955653;29;19910;-78
2022/07/30 10:47:39;;;;;;;10.23;7.35;;;;;;;;;;4955299;29;20038;-76
2022/07/30 10:50:07;;;;;;;8.88;7.35;;;;;;;;;;4953302;29;20457;-79
2022/07/30 10:52:53;;;;;;;13.23;10.00;;;;;;;;;;4953851;29;20027;-78
2022/07/30 10:55:26;;;;;;;12.00;7.95;;;;;;;;;;4969859;28;20035;-78
2022/07/30 10:58:05;;;;;;;10.05;7.82;;;;;;;;;;4954579;28;20053;-78
2022/07/30 11:00:34;;;;;;;12.30;9.05;;;;;;;;;;4953518;29;20034;-79
2022/07/30 11:03:14;;;;;;;16.20;10.95;;;;;;;;;;4953485;29;20031;-78
2022/07/30 11:05:40;;;;;;;18.63;12.48;;;;;;;;;;4954297;29;20039;-78
2022/07/30 11:08:37;;;;;;;9.13;7.88;;;;;;;;;;4954014;29;20035;-79
2022/07/30 11:11:29;;;;;;;10.02;7.88;;;;;;;;;;4957807;29;20023;-78
2022/07/30 11:13:56;;;;;;;11.77;9.07;;;;;;;;;;4966435;28;20085;-78
2022/07/30 11:16:41;;;;;;;10.40;8.35;;;;;;;;;;4966640;29;20027;-78
2022/07/30 11:19:15;;;;;;;13.52;8.52;;;;;;;;;;4970896;28;20035;-77
2022/07/30 11:21:41;;;;;;;12.88;10.23;;;;;;;;;;4970671;28;20039;-78
2022/07/30 11:24:45;;;;;;;13.05;8.43;;;;;;;;;;4945357;29;20138;-78
2022/07/30 11:27:34;;;;;;;10.50;9.50;;;;;;;;;;4934457;29;20038;-78
2022/07/30 11:30:01;;;;;;;10.43;7.30;;;;;;;;;;4933161;29;20392;-77
2022/07/30 11:32:30;;;;;;;10.05;7.60;;;;;;;;;;4933234;29;20024;-77
2022/07/30 11:35:13;;;;;;;10.57;8.30;;;;;;;;;;4932964;29;20047;-77
2022/07/30 11:38:00;;;;;;;9.45;6.65;;;;;;;;;;4934356;29;20090;-78
2022/07/30 11:40:31;;;;;;;11.75;8.05;;;;;;;;;;4934794;29;20028;-77
2022/07/30 11:43:16;;;;;;;9.65;8.02;;;;;;;;;;4932989;29;20456;-78
2022/07/30 11:45:43;;;;;;;8.45;7.40;;;;;;;;;;4938039;29;20035;-77
2022/07/30 11:48:11;;;;;;;14.05;8.95;;;;;;;;;;4940444;29;20484;-78
2022/07/30 11:50:37;;;;;;;9.57;8.57;;;;;;;;;;4934484;29;20060;-78
2022/07/30 11:53:06;;;;;;;12.40;8.52;;;;;;;;;;4935620;29;20368;-78
2022/07/30 11:55:41;;;;;;;12.75;8.63;;;;;;;;;;4933120;29;20547;-78
2022/07/30 11:58:09;;;;;;;11.52;8.55;;;;;;;;;;4933355;29;20423;-77
2022/07/30 12:00:46;;;;;;;14.40;8.55;;;;;;;;;;4933467;29;20049;-78
2022/07/30 12:03:17;;;;;;;11.13;8.07;;;;;;;;;;4933170;29;20596;-78
2022/07/30 12:05:44;;;;;;;11.52;10.13;;;;;;;;;;4933616;29;20038;-78
2022/07/30 12:08:11;;;;;;;10.65;9.20;;;;;;;;;;4934824;29;20031;-76
2022/07/30 12:10:38;;;;;;;11.93;9.73;;;;;;;;;;4933077;29;20131;-78
2022/07/30 12:13:15;;;;;;;17.58;9.82;;;;;;;;;;4932489;29;20031;-76
2022/07/30 12:15:43;;;;;;;9.77;8.73;;;;;;;;;;4933022;29;20066;-77
2022/07/30 12:18:12;;;;;;;10.32;8.98;;;;;;;;;;4934442;29;20023;-77
2022/07/30 12:20:41;;;;;;;14.02;9.05;;;;;;;;;;4933003;29;20027;-77
2022/07/30 12:23:14;;;;;;;13.48;9.10;;;;;;;;;;4932720;29;20439;-77
2022/07/30 12:25:41;;;;;;;11.65;8.60;;;;;;;;;;4933027;29;20035;-77
2022/07/30 12:28:09;;;;;;;14.48;10.20;;;;;;;;;;4935135;29;20023;-78
2022/07/30 12:30:38;;;;;;;12.48;10.35;;;;;;;;;;4933227;29;20034;-77
2022/07/30 12:33:04;;;;;;;15.73;10.82;;;;;;;;;;4933911;29;20024;-77
2022/07/30 12:35:44;;;;;;;17.17;10.00;;;;;;;;;;4933431;29;20118;-78
2022/07/30 12:38:10;;;;;;;15.38;10.70;;;;;;;;;;4932815;29;20551;-79
2022/07/30 12:40:57;;;;;;;14.07;10.07;;;;;;;;;;4917591;29;20043;-77
2022/07/30 12:43:45;;;;;;;13.52;10.20;;;;;;;;;;4934371;29;20028;-77
2022/07/30 12:46:16;;;;;;;14.82;10.00;;;;;;;;;;4934162;29;20098;-76
2022/07/30 12:48:59;;;;;;;;;;;;;;;;;;4933920;29;20127;-79
2022/07/30 12:51:27;;;;;;;14.65;10.88;;;;;;;;;;4933013;29;19918;-78
2022/07/30 12:53:54;;;;;;;15.65;10.68;;;;;;;;;;4932701;29;20028;-77
2022/07/30 12:56:23;;;;;;;17.35;11.30;;;;;;;;;;4934087;29;20035;-77
2022/07/30 12:58:48;;;;;;;14.23;10.57;;;;;;;;;;4932480;29;20400;-77
2022/07/30 13:01:14;;;;;;;15.13;12.48;;;;;;;;;;4932250;29;20032;-77
2022/07/30 13:03:40;;;;;;;16.58;12.05;;;;;;;;;;4932094;29;20041;-77
2022/07/30 13:06:17;;;;;;;22.65;13.45;;;;;;;;;;4931992;29;20043;-77
2022/07/30 13:08:56;;;;;;;15.43;11.73;;;;;;;;;;4932165;29;20052;-78
2022/07/30 13:11:35;;;;;;;16.35;11.48;;;;;;;;;;4933397;29;20038;-77
2022/07/30 13:14:01;;;;;;;14.52;10.77;;;;;;;;;;4931652;29;20115;-77
2022/07/30 13:16:30;;;;;;;12.30;10.57;;;;;;;;;;4933041;29;20119;-79
2022/07/30 13:18:56;;;;;;;14.63;11.55;;;;;;;;;;4933054;29;20039;-77
2022/07/30 13:21:22;;;;;;;17.10;11.80;;;;;;;;;;4931789;29;20099;-77
2022/07/30 13:23:47;;;;;;;15.55;12.50;;;;;;;;;;4943382;29;20027;-77
2022/07/30 13:26:14;;;;;;;17.88;13.35;;;;;;;;;;4951211;29;20475;-77
2022/07/30 13:28:40;;;;;;;15.45;12.00;;;;;;;;;;4951535;29;20027;-78
2022/07/30 13:31:07;;;;;;;12.45;10.82;;;;;;;;;;4951010;29;20027;-76
2022/07/30 13:33:34;;;;;;;15.95;12.52;;;;;;;;;;4952629;28;20031;-77
2022/07/30 13:36:00;;;;;;;19.75;13.52;;;;;;;;;;4950941;29;20039;-77
2022/07/30 13:38:26;;;;;;;17.23;11.73;;;;;;;;;;4950919;29;20058;-78
2022/07/30 13:40:52;;;;;;;14.23;10.80;;;;;;;;;;4951036;29;20486;-76
2022/07/30 13:43:18;;;;;;;17.85;10.90;;;;;;;;;;4950919;29;20039;-78
2022/07/30 13:45:43;;;;;;;17.30;10.93;;;;;;;;;;4956550;28;20477;-77
2022/07/30 13:48:09;;;;;;;14.30;11.43;;;;;;;;;;4958584;29;20027;-77
2022/07/30 13:50:35;;;;;;;13.70;10.70;;;;;;;;;;4954565;29;20034;-77
2022/07/30 13:53:00;;;;;;;14.52;11.40;;;;;;;;;;4955995;28;20094;-78
2022/07/30 13:55:26;;;;;;;12.55;10.07;;;;;;;;;;4954577;29;20042;-79
2022/07/30 13:57:51;;;;;;;17.00;11.85;;;;;;;;;;4954257;29;20035;-79
2022/07/30 14:00:17;;;;;;;17.25;10.77;;;;;;;;;;4953780;29;20035;-79
2022/07/30 14:02:42;;;;;;;12.65;10.38;;;;;;;;;;4955298;28;20031;-78
2022/07/30 14:05:08;;;;;;;12.30;10.32;;;;;;;;;;4953661;29;20077;-79
2022/07/30 14:07:35;;;;;;;14.95;11.23;;;;;;;;;;4953709;29;20031;-78
2022/07/30 14:10:01;;;;;;;14.40;10.73;;;;;;;;;;4955361;29;20057;-78
2022/07/30 14:12:26;;;;;;;21.08;14.60;;;;;;;;;;4955227;28;20038;-77
2022/07/30 14:14:52;;;;;;;14.70;12.43;;;;;;;;;;4953909;29;20027;-79
2022/07/30 14:17:17;;;;;;;13.15;10.80;;;;;;;;;;4953859;29;20034;-78
2022/07/30 14:19:43;;;;;;;13.50;11.15;;;;;;;;;;4956092;28;20542;-80
2022/07/30 14:22:08;;;;;;;17.27;11.35;;;;;;;;;;4953790;28;20396;-79
2022/07/30 14:24:34;;;;;;;14.25;10.48;;;;;;;;;;4955372;28;20038;-78
2022/07/30 14:26:59;;;;;;;15.13;10.90;;;;;;;;;;4953668;29;20031;-78
2022/07/30 14:29:26;;;;;;;13.73;11.35;;;;;;;;;;4954247;29;20046;-79
2022/07/30 14:31:51;;;;;;;14.98;11.25;;;;;;;;;;4971512;28;20039;-78
2022/07/30 14:34:18;;;;;;;13.18;11.15;;;;;;;;;;4953852;29;20031;-78
2022/07/30 14:36:44;;;;;;;16.90;12.35;;;;;;;;;;4953748;29;20034;-80